Time;durP1;ratioP1;P1;durP2;ratioP2;P2;SDS_P1;SDS_P2;PMS_P1;PMS_P2;Temp;Humidity;BMP_temperature;BMP_pressure;BME280_temperature;BME280_humidity;BME280_pressure;Samples;Min_cycle;Max_cycle;Signal;HPM_P1;HPM_P2
2022/06/28 00:02:08;;;;;;;;;;;;;;;32.65;29.30;99176.25;4420871;32;32706;-87
2022/06/28 00:04:35;;;;;;;;;;;;;;;32.66;29.22;99175.31;4395099;32;34159;-91
2022/06/28 00:07:02;;;;;;;;;;;;;;;32.52;29.24;99186.25;4407149;32;32951;-93
2022/06/28 00:09:30;;;;;;;;;;;;;;;32.63;29.09;99188.97;4420017;32;34817;-92
2022/06/28 00:11:57;;;;;;;;;;;;;;;32.64;29.16;99186.13;4421119;32;33569;-91
2022/06/28 00:17:10;;;;;;;;;;;;;;;32.51;29.41;99195.28;4408567;32;33832;-94
2022/06/28 00:19:38;;;;;;;;;;;;;;;32.51;29.20;99187.22;4421575;32;35369;-90
2022/06/28 00:22:05;;;;;;;;;;;;;;;32.49;29.30;99183.81;4409232;32;33806;-89
2022/06/28 00:24:32;;;;;;;;;;;;;;;32.41;29.42;99184.41;4422930;32;35056;-90
2022/06/28 00:26:59;;;;;;;;;;;;;;;32.46;29.27;99176.84;4422698;32;34358;-91
2022/06/28 00:29:27;;;;;;;;;;;;;;;32.03;29.96;99176.56;4408330;32;34571;-92
2022/06/28 00:31:55;;;;;;;;;;;;;;;31.86;30.34;99173.34;4422899;32;34506;-91
2022/06/28 00:34:22;;;;;;;;;;;;;;;32.14;29.85;99165.88;4422745;32;34341;-94
2022/06/28 00:36:49;;;;;;;;;;;;;;;32.28;29.54;99168.38;4422625;32;35069;-91
2022/06/28 00:39:17;;;;;;;;;;;;;;;32.33;29.51;99173.38;4408782;32;35020;-93
2022/06/28 00:41:44;;;;;;;;;;;;;;;32.08;29.85;99177.06;4407631;32;33805;-93
2022/06/28 00:44:12;;;;;;;;;;;;;;;32.21;29.80;99177.84;4408747;32;34835;-86
2022/06/28 00:46:40;;;;;;;;;;;;;;;32.31;29.75;99181.53;4408587;32;34991;-92
2022/06/28 00:49:08;;;;;;;;;;;;;;;32.31;29.63;99184.19;4409333;32;34356;-95
2022/06/28 00:51:35;;;;;;;;;;;;;;;32.33;29.52;99184.94;4408993;32;33608;-92
2022/06/28 00:54:03;;;;;;;;;;;;;;;32.14;29.74;99193.56;4422754;32;35005;-88
2022/06/28 00:56:30;;;;;;;;;;;;;;;31.71;30.39;99179.81;4421475;32;35337;-91
2022/06/28 00:58:57;;;;;;;;;;;;;;;31.46;30.84;99196.84;4423106;32;35237;-89
2022/06/28 01:01:25;;;;;;;;;;;;;;;31.87;30.57;99184.91;4409046;32;33772;-95
2022/06/28 01:03:53;;;;;;;;;;;;;;;31.35;31.07;99192.25;4423203;32;33760;-95
2022/06/28 01:06:20;;;;;;;;;;;;;;;31.35;31.01;99202.97;4402780;32;35070;-89
2022/06/28 01:08:48;;;;;;;;;;;;;;;31.33;30.96;99204.91;4407414;32;34303;-93
2022/06/28 01:11:19;;;;;;;;;;;;;;;31.50;30.91;99212.56;4388200;32;33790;-94
2022/06/28 01:13:48;;;;;;;;;;;;;;;31.62;30.50;99209.97;4422918;32;33942;-95
2022/06/28 01:16:16;;;;;;;;;;;;;;;31.49;30.58;99207.34;4422469;32;34333;-88
2022/06/28 01:18:44;;;;;;;;;;;;;;;31.59;30.36;99205.66;4408832;32;33149;-83
2022/06/28 01:21:15;;;;;;;;;;;;;;;31.53;30.55;99202.59;4408855;32;33200;-95
2022/06/28 01:23:46;;;;;;;;;;;;;;;31.44;30.65;99199.63;4408230;32;34239;-95
2022/06/28 01:26:16;;;;;;;;;;;;;;;31.63;30.25;99188.44;4408548;32;34590;-91
2022/06/28 01:28:44;;;;;;;;;;;;;;;31.62;30.31;99204.59;4408090;32;35272;-94
2022/06/28 01:31:12;;;;;;;;;;;;;;;31.55;30.38;99211.38;4408433;32;34985;-91
2022/06/28 01:33:40;;;;;;;;;;;;;;;31.54;30.34;99196.28;4408418;32;33809;-95
2022/06/28 01:36:10;;;;;;;;;;;;;;;31.58;30.08;99195.06;4422397;32;34272;-94
2022/06/28 01:38:41;;;;;;;;;;;;;;;31.58;30.31;99195.06;4422494;32;35190;-94
2022/06/28 01:41:08;;;;;;;;;;;;;;;31.78;29.80;99181.03;4422312;32;33533;-82
2022/06/28 01:43:39;;;;;;;;;;;;;;;31.48;29.90;99187.72;4395346;32;34471;-89
2022/06/28 01:46:06;;;;;;;;;;;;;;;31.69;29.73;99177.22;4408306;32;34205;-91
2022/06/28 01:48:34;;;;;;;;;;;;;;;31.13;29.88;99178.66;4408924;32;34758;-91
2022/06/28 01:51:01;;;;;;;;;;;;;;;31.72;28.64;99171.66;4408237;32;33443;-91
2022/06/28 01:53:29;;;;;;;;;;;;;;;31.91;28.83;99181.88;4422250;32;34835;-87
2022/06/28 01:55:57;;;;;;;;;;;;;;;31.04;30.04;99195.41;4408602;32;34412;-96
2022/06/28 01:58:27;;;;;;;;;;;;;;;31.63;29.54;99206.31;4422482;32;34155;-94
2022/06/28 02:00:54;;;;;;;;;;;;;;;31.04;29.82;99206.97;4408586;32;32938;-86
2022/06/28 02:03:21;;;;;;;;;;;;;;;31.44;29.65;99205.00;4408275;32;34562;-94
2022/06/28 02:05:49;;;;;;;;;;;;;;;31.66;29.42;99211.44;4422495;32;34557;-90
2022/06/28 02:08:16;;;;;;;;;;;;;;;31.66;29.38;99211.44;4408615;32;34322;-93
2022/06/28 02:10:44;;;;;;;;;;;;;;;31.78;29.02;99196.28;4422271;32;33043;-95
2022/06/28 02:13:12;;;;;;;;;;;;;;;31.82;29.02;99203.13;4421423;32;34250;-95
2022/06/28 02:15:39;;;;;;;;;;;;;;;31.14;29.48;99201.78;4408144;32;34507;-95
2022/06/28 02:18:07;;;;;;;;;;;;;;;31.62;29.34;99202.78;4408353;32;34278;-95
2022/06/28 02:20:34;;;;;;;;;;;;;;;31.92;29.10;99199.66;4421847;32;33588;-87
2022/06/28 02:23:01;;;;;;;;;;;;;;;31.53;29.37;99197.25;4392201;32;33903;-93
2022/06/28 02:25:29;;;;;;;;;;;;;;;31.73;28.83;99191.25;4405349;32;33239;-94
2022/06/28 02:27:56;;;;;;;;;;;;;;;31.88;28.83;99182.09;4405589;32;33079;-93
2022/06/28 02:30:24;;;;;;;;;;;;;;;31.60;29.06;99195.84;4407897;32;33728;-94
2022/06/28 02:32:52;;;;;;;;;;;;;;;31.44;29.42;99194.28;4407863;32;35108;-91
2022/06/28 02:40:51;;;;;;;;;;;;;;;31.94;28.67;99212.97;4421235;32;33983;-93
2022/06/28 02:43:19;;;;;;;;;;;;;;;31.85;28.96;99206.47;4419127;32;32665;-86
2022/06/28 02:45:46;;;;;;;;;;;;;;;31.89;28.94;99215.13;4421741;32;34136;-90
2022/06/28 02:48:14;;;;;;;;;;;;;;;32.14;28.55;99208.78;4421935;32;34671;-94
2022/06/28 02:50:42;;;;;;;;;;;;;;;31.79;29.09;99212.25;4421692;32;33874;-95
2022/06/28 02:53:09;;;;;;;;;;;;;;;31.81;29.19;99213.00;4421333;32;34018;-90
2022/06/28 02:55:36;;;;;;;;;;;;;;;32.12;28.74;99200.00;4421580;32;34419;-94
2022/06/28 02:58:04;;;;;;;;;;;;;;;32.25;28.61;99205.31;4421895;32;35393;-90
2022/06/28 03:00:31;;;;;;;;;;;;;;;32.31;28.59;99197.62;4419982;32;34216;-89
2022/06/28 03:02:59;;;;;;;;;;;;;;;32.27;28.65;99196.13;4421827;32;33972;-93
2022/06/28 03:05:27;;;;;;;;;;;;;;;32.29;28.59;99194.22;4421707;32;34327;-94
2022/06/28 03:07:54;;;;;;;;;;;;;;;32.30;28.70;99193.22;4407684;32;34142;-91
2022/06/28 03:10:22;;;;;;;;;;;;;;;32.16;28.93;99205.03;4421366;32;32724;-93
2022/06/28 03:12:51;;;;;;;;;;;;;;;32.32;28.70;99198.50;4421738;32;34209;-93
2022/06/28 03:15:18;;;;;;;;;;;;;;;32.25;28.63;99190.06;4421852;32;34399;-86
2022/06/28 03:17:49;;;;;;;;;;;;;;;32.24;28.83;99188.34;4422012;32;34214;-91
2022/06/28 03:20:17;;;;;;;;;;;;;;;31.95;29.56;99199.44;4420840;32;33330;-92
2022/06/28 03:22:44;;;;;;;;;;;;;;;32.18;29.50;99205.75;4421456;32;35130;-93
2022/06/28 03:25:11;;;;;;;;;;;;;;;32.34;29.37;99212.62;4417744;32;34235;-95
2022/06/28 03:27:39;;;;;;;;;;;;;;;32.29;29.36;99226.41;4405364;32;34605;-95
2022/06/28 03:30:06;;;;;;;;;;;;;;;32.15;29.66;99237.31;4416353;32;33316;-88
2022/06/28 03:32:34;;;;;;;;;;;;;;;31.87;30.20;99254.63;4421515;32;34374;-88
2022/06/28 03:35:02;;;;;;;;;;;;;;;32.00;29.99;99254.56;4407931;32;33906;-92
2022/06/28 03:37:30;;;;;;;;;;;;;;;32.17;29.87;99272.94;4407894;32;34950;-91
2022/06/28 03:39:57;;;;;;;;;;;;;;;32.18;30.00;99274.66;4412143;32;34451;-96
2022/06/28 03:42:25;;;;;;;;;;;;;;;32.22;29.88;99293.06;4406754;32;34026;-93
2022/06/28 03:44:52;;;;;;;;;;;;;;;32.30;30.02;99295.19;4392540;32;33292;-90
2022/06/28 03:47:20;;;;;;;;;;;;;;;32.21;30.25;99304.78;4405330;32;35304;-93
2022/06/28 03:49:47;;;;;;;;;;;;;;;32.43;30.15;99300.53;4414285;32;33743;-93
2022/06/28 03:52:15;;;;;;;;;;;;;;;32.68;30.02;99318.28;4420786;32;33988;-95
2022/06/28 03:54:43;;;;;;;;;;;;;;;32.94;29.68;99324.38;4421587;32;34428;-94
2022/06/28 03:57:11;;;;;;;;;;;;;;;33.12;29.25;99322.97;4421655;32;35015;-93
2022/06/28 03:59:38;;;;;;;;;;;;;;;33.20;29.43;99317.00;4413740;32;34606;-93
2022/06/28 04:02:06;;;;;;;;;;;;;;;33.00;30.04;99314.97;4406000;32;34566;-95
2022/06/28 04:04:33;;;;;;;;;;;;;;;32.40;31.18;99320.41;4405990;32;34376;-87
2022/06/28 04:07:00;;;;;;;;;;;;;;;33.64;29.64;99326.94;4405664;32;34767;-95
2022/06/28 04:09:28;;;;;;;;;;;;;;;33.96;29.44;99319.91;4411578;32;33699;-94
2022/06/28 04:11:55;;;;;;;;;;;;;;;33.84;29.68;99319.94;4421193;32;33921;-94
2022/06/28 04:14:23;;;;;;;;;;;;;;;33.65;29.19;99330.47;4420808;32;34064;-92
2022/06/28 04:16:50;;;;;;;;;;;;;;;34.18;29.07;99341.44;4419632;32;34266;-84
2022/06/28 04:19:18;;;;;;;;;;;;;;;34.48;28.00;99339.88;4407972;32;32783;-94
2022/06/28 04:21:46;;;;;;;;;;;;;;;34.69;27.80;99345.31;4421122;32;34693;-88
2022/06/28 04:24:15;;;;;;;;;;;;;;;34.95;27.47;99340.41;4408025;32;33913;-90
2022/06/28 04:26:43;;;;;;;;;;;;;;;35.19;27.08;99345.53;4412380;32;34712;-91
2022/06/28 04:29:11;;;;;;;;;;;;;;;35.27;27.22;99335.81;4391977;32;33836;-94
2022/06/28 04:31:39;;;;;;;;;;;;;;;35.33;27.08;99335.25;4404563;32;32509;-93
2022/06/28 04:34:06;;;;;;;;;;;;;;;35.19;26.90;99327.53;4405698;32;35275;-95
2022/06/28 04:36:35;;;;;;;;;;;;;;;35.19;27.36;99327.53;4394296;32;34661;-95
2022/06/28 04:39:02;;;;;;;;;;;;;;;34.98;27.73;99350.91;4407153;32;34308;-95
2022/06/28 04:41:31;;;;;;;;;;;;;;;34.25;26.44;99379.47;4407326;32;34251;-93
2022/06/28 04:43:59;;;;;;;;;;;;;;;33.22;28.13;99376.81;4408129;32;33504;-95
2022/06/28 04:46:26;;;;;;;;;;;;;;;33.25;28.41;99381.09;4403881;32;33849;-91
2022/06/28 04:48:54;;;;;;;;;;;;;;;32.28;29.60;99403.56;4405472;32;33504;-93
2022/06/28 04:51:22;;;;;;;;;;;;;;;32.63;29.82;99401.03;4404272;32;34118;-95
2022/06/28 04:53:50;;;;;;;;;;;;;;;32.89;29.44;99405.28;4408660;32;35283;-95
2022/06/28 04:56:18;;;;;;;;;;;;;;;33.31;28.48;99402.12;4420025;32;34507;-94
2022/06/28 04:58:45;;;;;;;;;;;;;;;32.98;29.40;99419.00;4391774;32;33602;-92
2022/06/28 05:01:12;;;;;;;;;;;;;;;33.42;28.74;99415.59;4405178;32;34175;-95
2022/06/28 05:03:42;;;;;;;;;;;;;;;32.13;30.56;99417.16;4406146;32;35184;-93
2022/06/28 05:06:12;;;;;;;;;;;;;;;31.07;32.22;99404.06;4398510;32;33874;-86
2022/06/28 05:08:43;;;;;;;;;;;;;;;32.09;30.24;99404.94;4408866;32;33391;-93
2022/06/28 05:11:11;;;;;;;;;;;;;;;32.00;31.90;99408.25;4422529;32;34888;-89
2022/06/28 05:13:38;;;;;;;;;;;;;;;31.75;31.92;99414.50;4422845;32;35138;-90
2022/06/28 05:16:07;;;;;;;;;;;;;;;31.15;33.13;99425.81;4422472;32;35353;-85
2022/06/28 05:18:34;;;;;;;;;;;;;;;30.47;34.55;99430.25;4421656;32;33892;-85
2022/06/28 05:21:02;;;;;;;;;;;;;;;30.21;36.06;99444.47;4422326;32;33543;-90
2022/06/28 05:23:31;;;;;;;;;;;;;;;29.41;38.42;99441.31;4408294;32;34906;-88
2022/06/28 05:26:00;;;;;;;;;;;;;;;28.56;40.76;99429.37;4421846;32;35151;-85
2022/06/28 05:28:27;;;;;;;;;;;;;;;28.26;42.34;99420.41;4422909;32;33492;-94
2022/06/28 05:30:55;;;;;;;;;;;;;;;27.79;43.97;99429.19;4422825;32;33675;-95
2022/06/28 05:33:23;;;;;;;;;;;;;;;28.15;42.91;99423.69;4422100;32;33687;-89
2022/06/28 05:35:50;;;;;;;;;;;;;;;28.96;41.33;99419.06;4423167;32;34139;-96
2022/06/28 05:38:18;;;;;;;;;;;;;;;28.94;41.69;99420.09;4408517;32;33728;-87
2022/06/28 05:40:45;;;;;;;;;;;;;;;29.00;42.13;99415.28;4421862;32;34134;-89
2022/06/28 05:43:13;;;;;;;;;;;;;;;29.05;44.45;99383.84;4421601;32;35189;-88
2022/06/28 05:45:40;;;;;;;;;;;;;;;29.65;44.94;99374.88;4421950;32;35293;-89
2022/06/28 05:48:07;;;;;;;;;;;;;;;29.04;46.94;99379.44;4421680;32;34334;-85
2022/06/28 05:50:35;;;;;;;;;;;;;;;28.57;48.58;99356.41;4421523;32;34217;-87
2022/06/28 05:53:02;;;;;;;;;;;;;;;29.93;45.96;99323.22;4421712;32;35183;-87
2022/06/28 05:55:31;;;;;;;;;;;;;;;30.58;44.65;99306.47;4421322;32;35161;-86
2022/06/28 05:57:58;;;;;;;;;;;;;;;30.81;44.78;99323.69;4408385;32;33710;-87
2022/06/28 06:00:26;;;;;;;;;;;;;;;30.49;45.58;99329.34;4406449;32;35128;-85
2022/06/28 06:02:54;;;;;;;;;;;;;;;30.92;44.77;99321.13;4392401;32;34475;-86
2022/06/28 06:05:21;;;;;;;;;;;;;;;31.36;44.07;99317.19;4412109;32;34067;-86
2022/06/28 06:07:49;;;;;;;;;;;;;;;31.41;43.87;99307.03;4408191;32;34203;-87
2022/06/28 06:10:16;;;;;;;;;;;;;;;31.44;43.91;99313.97;4420926;32;33856;-83
2022/06/28 06:12:43;;;;;;;;;;;;;;;31.44;43.18;99305.94;4421059;32;33732;-86
2022/06/28 06:15:11;;;;;;;;;;;;;;;31.63;43.12;99284.03;4404574;32;34138;-85
2022/06/28 06:17:38;;;;;;;;;;;;;;;31.33;43.42;99261.19;4418394;32;34435;-87
2022/06/28 06:20:08;;;;;;;;;;;;;;;29.84;44.87;99259.66;4406853;32;34047;-86
2022/06/28 06:22:36;;;;;;;;;;;;;;;27.64;49.97;99269.22;4419505;32;35122;-88
2022/06/28 06:25:05;;;;;;;;;;;;;;;27.09;51.35;99268.72;4392226;32;34512;-86
2022/06/28 06:27:37;;;;;;;;;;;;;;;28.35;47.97;99287.44;4406456;32;34336;-82
2022/06/28 06:30:06;;;;;;;;;;;;;;;28.49;49.13;99350.66;4420189;32;34843;-82
2022/06/28 06:32:35;;;;;;;;;;;;;;;28.27;49.68;99371.47;4408369;32;34379;-83
2022/06/28 06:35:04;;;;;;;;;;;;;;;28.19;50.25;99344.41;4419994;32;33923;-85
2022/06/28 06:37:31;;;;;;;;;;;;;;;28.76;49.29;99307.31;4406633;32;33631;-85
2022/06/28 06:39:59;;;;;;;;;;;;;;;29.70;47.27;99291.75;4406604;32;34129;-85
2022/06/28 06:42:26;;;;;;;;;;;;;;;28.71;50.84;99248.00;4405093;32;34684;-87
2022/06/28 06:44:54;;;;;;;;;;;;;;;29.15;49.80;99253.34;4406177;32;34197;-86
2022/06/28 06:47:22;;;;;;;;;;;;;;;29.77;48.32;99283.22;4421205;32;34274;-87
2022/06/28 06:49:49;;;;;;;;;;;;;;;28.82;48.22;99326.47;4408451;32;34294;-86
2022/06/28 06:52:17;;;;;;;;;;;;;;;27.77;50.70;99329.84;4421593;32;35336;-86
2022/06/28 06:54:46;;;;;;;;;;;;;;;28.69;49.16;99335.31;4421532;32;34449;-82
2022/06/28 06:57:19;;;;;;;;;;;;;;;28.35;50.56;99380.75;4408547;32;33539;-87
2022/06/28 06:59:47;;;;;;;;;;;;;;;28.03;50.08;99361.22;4421461;32;33936;-87
2022/06/28 07:02:14;;;;;;;;;;;;;;;28.99;48.19;99357.53;4421918;32;34509;-84
2022/06/28 07:04:42;;;;;;;;;;;;;;;27.86;50.40;99353.31;4420805;32;34633;-80
2022/06/28 07:07:09;;;;;;;;;;;;;;;27.96;48.77;99348.31;4414879;32;34569;-83
2022/06/28 07:09:40;;;;;;;;;;;;;;;27.70;49.97;99357.75;4420777;32;35155;-85
2022/06/28 07:12:07;;;;;;;;;;;;;;;28.14;47.68;99339.31;4421063;32;34015;-81
2022/06/28 07:14:35;;;;;;;;;;;;;;;27.99;48.51;99330.37;4404134;32;34283;-80
2022/06/28 07:17:02;;;;;;;;;;;;;;;28.73;47.00;99312.81;4407710;32;33818;-81
2022/06/28 07:19:30;;;;;;;;;;;;;;;28.91;46.40;99324.22;4406250;32;33524;-83
2022/06/28 07:21:57;;;;;;;;;;;;;;;29.18;45.68;99314.56;4413403;32;34280;-85
2022/06/28 07:24:24;;;;;;;;;;;;;;;29.40;45.28;99306.06;4407004;32;34399;-87
2022/06/28 07:26:52;;;;;;;;;;;;;;;29.50;45.18;99304.53;4406665;32;33740;-87
2022/06/28 07:29:19;;;;;;;;;;;;;;;29.32;45.55;99303.00;4420897;32;34308;-85
2022/06/28 07:31:46;;;;;;;;;;;;;;;29.16;45.81;99286.22;4420975;32;34249;-85
2022/06/28 07:34:14;;;;;;;;;;;;;;;29.33;45.56;99280.69;4420972;32;34482;-85
2022/06/28 07:36:41;;;;;;;;;;;;;;;29.69;44.90;99284.69;4420997;32;33586;-85
2022/06/28 07:39:08;;;;;;;;;;;;;;;28.98;46.43;99291.75;4421197;32;33907;-82
2022/06/28 07:41:51;;;;;;;;;;;;;;;29.05;46.83;99301.06;4421112;32;34293;-84
2022/06/28 07:44:23;;;;;;;;;;;;;;;29.45;45.66;99317.31;4420256;32;34204;-81
2022/06/28 07:46:50;;;;;;;;;;;;;;;28.49;45.67;99324.00;4407591;32;33045;-83
2022/06/28 07:49:18;;;;;;;;;;;;;;;28.89;44.45;99326.97;4407242;32;34952;-84
2022/06/28 07:54:38;;;;;;;;;;;;;;;29.97;44.86;99350.63;4413056;32;35248;-84
2022/06/28 07:57:06;;;;;;;;;;;;;;;28.70;48.09;99375.22;4411878;32;33573;-83
2022/06/28 07:59:34;;;;;;;;;;;;;;;28.24;48.52;99372.50;4405980;32;34150;-82
2022/06/28 08:02:02;;;;;;;;;;;;;;;27.69;49.99;99374.66;4420885;32;33739;-84
2022/06/28 08:04:30;;;;;;;;;;;;;;;27.54;50.43;99371.91;4419603;32;34511;-83
2022/06/28 08:06:58;;;;;;;;;;;;;;;27.35;50.26;99357.81;4406619;32;34269;-84
2022/06/28 08:09:26;;;;;;;;;;;;;;;27.51;50.71;99371.22;4420536;32;33753;-85
2022/06/28 08:11:54;;;;;;;;;;;;;;;27.44;51.31;99360.00;4418773;32;34461;-86
2022/06/28 08:14:22;;;;;;;;;;;;;;;27.39;51.48;99362.06;4420763;32;34337;-85
2022/06/28 08:16:52;;;;;;;;;;;;;;;26.87;52.08;99356.75;4421009;32;33046;-86
2022/06/28 08:19:19;;;;;;;;;;;;;;;26.98;52.03;99358.88;4404877;32;35243;-85
2022/06/28 08:21:49;;;;;;;;;;;;;;;27.54;51.60;99347.03;4403982;32;35069;-86
2022/06/28 08:24:17;;;;;;;;;;;;;;;27.14;52.20;99344.72;4406214;32;34693;-85
2022/06/28 08:26:44;;;;;;;;;;;;;;;27.70;50.68;99347.97;4406460;32;34499;-87
2022/06/28 08:29:12;;;;;;;;;;;;;;;27.09;52.45;99349.41;4406672;32;35463;-82
2022/06/28 08:31:40;;;;;;;;;;;;;;;27.54;52.72;99355.94;4407022;32;34373;-87
2022/06/28 08:34:08;;;;;;;;;;;;;;;28.00;50.91;99364.09;4394190;32;34453;-88
2022/06/28 08:36:39;;;;;;;;;;;;;;;27.99;51.63;99370.34;4420278;32;33590;-89
2022/06/28 08:39:07;;;;;;;;;;;;;;;28.62;49.67;99365.00;4422568;32;33937;-85
2022/06/28 08:41:37;;;;;;;;;;;;;;;28.54;50.13;99375.25;4408141;32;32833;-86
2022/06/28 08:44:04;;;;;;;;;;;;;;;29.25;48.55;99366.63;4408529;32;34341;-88
2022/06/28 08:46:32;;;;;;;;;;;;;;;29.38;46.45;99357.84;4421670;32;34468;-87
2022/06/28 08:49:03;;;;;;;;;;;;;;;29.07;48.37;99371.25;4408784;32;35101;-88
2022/06/28 08:51:33;;;;;;;;;;;;;;;29.57;47.89;99372.69;4408109;32;34524;-87
2022/06/28 08:54:03;;;;;;;;;;;;;;;29.76;47.15;99371.53;4422300;32;34091;-88
2022/06/28 08:56:31;;;;;;;;;;;;;;;29.41;47.72;99369.22;4406840;32;33890;-87
2022/06/28 08:58:59;;;;;;;;;;;;;;;29.08;49.12;99380.97;4411679;32;36092;-87
2022/06/28 09:01:26;;;;;;;;;;;;;;;28.87;49.27;99379.59;4419230;32;34437;-83
2022/06/28 09:03:54;;;;;;;;;;;;;;;28.48;51.83;99394.28;4421974;32;34414;-84
2022/06/28 09:06:23;;;;;;;;;;;;;;;28.95;49.30;99385.31;4408587;32;32907;-83
2022/06/28 09:08:50;;;;;;;;;;;;;;;29.50;49.14;99398.03;4421429;32;34161;-89
2022/06/28 09:11:21;;;;;;;;;;;;;;;29.14;49.90;99394.94;4408164;32;34166;-89
2022/06/28 09:13:48;;;;;;;;;;;;;;;28.79;50.98;99404.06;4422354;32;34264;-83
2022/06/28 09:16:15;;;;;;;;;;;;;;;28.12;50.64;99410.53;4422453;32;33418;-89
2022/06/28 09:18:44;;;;;;;;;;;;;;;29.15;48.96;99400.16;4421617;32;33512;-92
2022/06/28 09:21:13;;;;;;;;;;;;;;;27.77;51.25;99404.44;4422397;32;34538;-89
2022/06/28 09:23:41;;;;;;;;;;;;;;;29.04;49.17;99403.47;4422023;32;35207;-85
2022/06/28 09:26:13;;;;;;;;;;;;;;;28.83;49.31;99418.06;4392928;32;32811;-88
2022/06/28 09:28:42;;;;;;;;;;;;;;;28.85;47.50;99402.81;4398464;32;33972;-89
2022/06/28 09:31:14;;;;;;;;;;;;;;;29.23;48.53;99410.38;4417629;32;34226;-94
2022/06/28 09:33:48;;;;;;;;;;;;;;;29.08;49.23;99404.16;4407234;32;34369;-89
2022/06/28 09:36:18;;;;;;;;;;;;;;;29.80;47.70;99403.31;4410968;32;33565;-90
2022/06/28 09:38:46;;;;;;;;;;;;;;;29.01;49.14;99405.47;4407991;32;34024;-89
2022/06/28 09:41:26;;;;;;;;;;;;;;;29.29;49.01;99412.69;4392960;32;34392;-89
2022/06/28 09:43:59;;;;;;;;;;;;;;;28.95;49.73;99414.69;4407079;32;33888;-84
2022/06/28 09:46:28;;;;;;;;;;;;;;;30.32;46.33;99414.34;4404738;32;34323;-93
2022/06/28 09:49:00;;;;;;;;;;;;;;;29.31;48.61;99416.97;4406931;32;35146;-87
2022/06/28 09:51:28;;;;;;;;;;;;;;;30.63;46.33;99418.56;4414918;32;34962;-91
2022/06/28 09:53:58;;;;;;;;;;;;;;;31.05;45.76;99411.31;4414807;32;34556;-88
2022/06/28 09:56:48;;;;;;;;;;;;;;;30.70;45.60;99417.19;4406787;32;33274;-92
2022/06/28 09:59:18;;;;;;;;;;;;;;;30.71;46.37;99416.22;4393512;32;34449;-88
2022/06/28 10:01:45;;;;;;;;;;;;;;;31.07;43.93;99410.25;4391543;32;34258;-88
2022/06/28 10:04:14;;;;;;;;;;;;;;;30.95;47.04;99414.63;4391337;32;34947;-84
2022/06/28 10:06:41;;;;;;;;;;;;;;;30.81;46.49;99417.38;4396879;32;34003;-91
2022/06/28 10:09:08;;;;;;;;;;;;;;;31.86;43.61;99414.63;4392583;32;35074;-93
2022/06/28 10:17:22;;;;;;;;;;;;;;;31.61;43.91;99409.25;4393978;32;33541;-91
2022/06/28 10:19:50;;;;;;;;;;;;;;;31.36;43.25;99413.63;4392687;32;33268;-85
2022/06/28 10:22:18;;;;;;;;;;;;;;;31.71;44.19;99407.66;4392668;32;34292;-86
2022/06/28 10:24:52;;;;;;;;;;;;;;;31.87;43.69;99412.81;4405648;32;34143;-90
2022/06/28 10:27:22;;;;;;;;;;;;;;;32.29;43.39;99416.03;4391540;32;34600;-92
2022/06/28 10:29:58;;;;;;;;;;;;;;;32.08;44.25;99418.44;4405862;32;34117;-84
2022/06/28 10:32:37;;;;;;;;;;;;;;;32.70;41.88;99413.00;4402082;32;32745;-91
2022/06/28 10:35:05;;;;;;;;;;;;;;;32.77;41.55;99406.22;4402606;32;35363;-91
2022/06/28 10:37:33;;;;;;;;;;;;;;;31.98;42.08;99407.53;4400057;32;34457;-92
2022/06/28 10:40:35;;;;;;;;;;;;;;;32.01;42.67;99411.81;4390380;32;34718;-91
2022/06/28 10:43:06;;;;;;;;;;;;;;;32.44;40.84;99402.38;4358743;32;34562;-82
2022/06/28 10:45:52;;;;;;;;;;;;;;;31.49;43.47;99406.47;4391115;32;34630;-93
2022/06/28 10:48:20;;;;;;;;;;;;;;;32.45;43.37;99409.44;4406434;32;33698;-79
2022/06/28 10:50:59;;;;;;;;;;;;;;;31.96;41.77;99409.47;4406361;32;33391;-81
2022/06/28 10:53:32;;;;;;;;;;;;;;;32.59;41.71;99408.44;4393069;32;35601;-81
2022/06/28 10:56:10;;;;;;;;;;;;;;;32.56;40.58;99397.06;4408172;32;33270;-81
2022/06/28 10:58:57;;;;;;;;;;;;;;;32.55;39.97;99395.38;4421111;32;32657;-87
2022/06/28 11:01:39;;;;;;;;;;;;;;;33.12;40.67;99389.28;4409269;32;34595;-92
2022/06/28 11:04:09;;;;;;;;;;;;;;;32.82;38.35;99393.28;4396740;32;33762;-81
2022/06/28 11:06:43;;;;;;;;;;;;;;;32.68;41.01;99397.00;4407414;32;34123;-83
2022/06/28 11:09:13;;;;;;;;;;;;;;;33.07;38.75;99386.06;4407884;32;33373;-89
2022/06/28 11:11:59;;;;;;;;;;;;;;;32.62;37.60;99389.44;4408152;32;33647;-90
2022/06/28 11:14:30;;;;;;;;;;;;;;;32.43;38.98;99386.41;4421836;32;34115;-92
2022/06/28 11:17:13;;;;;;;;;;;;;;;32.78;38.86;99397.19;4396751;32;34920;-91
2022/06/28 11:19:51;;;;;;;;;;;;;;;33.66;36.96;99376.03;4398788;32;34024;-94
2022/06/28 11:22:22;;;;;;;;;;;;;;;33.68;35.63;99378.63;4408353;32;34271;-96
2022/06/28 11:24:51;;;;;;;;;;;;;;;33.94;35.67;99376.50;4370618;32;919924;-87
2022/06/28 11:27:21;;;;;;;;;;;;;;;32.63;39.68;99388.44;4409803;32;34496;-96
2022/06/28 11:29:54;;;;;;;;;;;;;;;32.86;39.80;99386.72;4409113;32;34031;-92
2022/06/28 11:32:26;;;;;;;;;;;;;;;33.46;37.90;99378.59;4422743;32;34098;-82
2022/06/28 11:34:54;;;;;;;;;;;;;;;33.44;37.75;99378.69;4409007;32;34414;-91
2022/06/28 11:37:22;;;;;;;;;;;;;;;33.74;38.77;99383.50;4421839;32;34210;-86
2022/06/28 11:39:50;;;;;;;;;;;;;;;33.31;39.35;99368.06;4407736;32;33170;-87
2022/06/28 11:42:18;;;;;;;;;;;;;;;33.15;38.99;99375.59;4407748;32;33451;-88
2022/06/28 11:44:46;;;;;;;;;;;;;;;33.67;37.92;99368.84;4421003;32;33028;-94
2022/06/28 11:47:18;;;;;;;;;;;;;;;34.05;38.67;99365.78;4420041;32;34267;-93
2022/06/28 11:49:50;;;;;;;;;;;;;;;33.22;40.28;99351.78;4407692;32;33063;-95
2022/06/28 11:52:18;;;;;;;;;;;;;;;33.69;38.68;99350.75;4420824;32;33701;-81
2022/06/28 11:54:53;;;;;;;;;;;;;;;33.90;38.78;99365.16;4415288;32;35393;-85
2022/06/28 11:57:20;;;;;;;;;;;;;;;34.86;36.49;99353.66;4406802;32;35332;-95
2022/06/28 11:59:55;;;;;;;;;;;;;;;33.73;39.22;99354.06;4407217;32;34505;-86
2022/06/28 12:02:41;;;;;;;;;;;;;;;33.40;39.11;99339.59;4422827;32;34110;-94
2022/06/28 12:05:08;;;;;;;;;;;;;;;34.20;36.75;99349.38;4423888;32;34186;-89
2022/06/28 12:07:40;;;;;;;;;;;;;;;34.42;36.74;99338.53;4423609;32;34471;-96
2022/06/28 12:10:28;;;;;;;;;;;;;;;34.60;35.85;99336.16;4409845;32;33494;-91
2022/06/28 12:12:56;;;;;;;;;;;;;;;34.69;36.94;99329.16;4398832;32;34212;-88
2022/06/28 12:15:32;;;;;;;;;;;;;;;34.42;38.32;99332.28;4393471;32;32793;-84
2022/06/28 12:18:07;;;;;;;;;;;;;;;33.51;38.12;99330.72;4413255;32;35065;-85
2022/06/28 12:20:53;;;;;;;;;;;;;;;34.97;35.77;99319.59;4413701;32;33793;-85
2022/06/28 12:23:20;;;;;;;;;;;;;;;35.09;37.91;99319.41;4427650;32;34590;-85
2022/06/28 12:25:57;;;;;;;;;;;;;;;35.26;35.10;99317.91;4427329;32;34664;-88
2022/06/28 12:28:24;;;;;;;;;;;;;;;33.91;38.03;99317.63;4411360;32;34625;-96
2022/06/28 12:30:54;;;;;;;;;;;;;;;34.19;36.69;99324.28;4414531;32;33738;-85
2022/06/28 12:33:21;;;;;;;;;;;;;;;33.16;38.18;99320.91;4401917;32;34041;-89
2022/06/28 12:35:48;;;;;;;;;;;;;;;34.31;38.36;99320.56;4413293;32;34378;-88
2022/06/28 12:38:16;;;;;;;;;;;;;;;34.74;35.35;99310.75;4422127;32;34623;-85
2022/06/28 12:40:43;;;;;;;;;;;;;;;34.32;36.14;99316.94;4420154;32;34024;-90
2022/06/28 12:43:10;;;;;;;;;;;;;;;33.60;38.03;99308.47;4417478;32;34165;-85
2022/06/28 12:45:38;;;;;;;;;;;;;;;35.02;36.96;99309.28;4430194;32;34227;-85
2022/06/28 12:48:10;;;;;;;;;;;;;;;35.21;35.92;99297.75;4438140;32;34845;-87
2022/06/28 12:50:38;;;;;;;;;;;;;;;35.83;35.04;99300.28;4426550;32;33194;-91
2022/06/28 12:53:06;;;;;;;;;;;;;;;34.18;36.67;99301.06;4425963;32;34058;-91
2022/06/28 12:55:34;;;;;;;;;;;;;;;34.03;37.09;99294.25;4427100;32;33905;-90
2022/06/28 12:58:04;;;;;;;;;;;;;;;34.44;37.14;99292.63;4415273;32;34182;-89
2022/06/28 13:00:34;;;;;;;;;;;;;;;35.37;35.38;99289.16;4416301;32;33697;-96
2022/06/28 13:03:01;;;;;;;;;;;;;;;35.58;33.99;99296.25;4402241;32;33806;-89
2022/06/28 13:05:28;;;;;;;;;;;;;;;34.98;34.46;99286.25;4398801;32;33734;-84
2022/06/28 13:07:56;;;;;;;;;;;;;;;35.46;33.70;99291.91;4419363;32;34009;-92
2022/06/28 13:10:24;;;;;;;;;;;;;;;35.61;32.59;99289.72;4416846;32;35581;-85
2022/06/28 13:12:51;;;;;;;;;;;;;;;35.68;33.32;99279.22;4409886;32;34018;-95
2022/06/28 13:15:18;;;;;;;;;;;;;;;35.21;33.93;99276.19;4427953;32;34603;-94